THY5142 LTFM-OEMA
Flight info
| Callsign | THY5142 |
|---|---|
| Flight time | 2h 53m |
| Altitude | 39000 |
| Route | RATVU UT35 AYT UM855 TOMBI M855 RASDA A16 CVO L315 HGD M872 BOVET |
| Aircraft | B77W/H-SDE1E2E3FGHIJ2J3J4J5M1RWXY/LB1D1 |
Departure
| Time | 2026-04-15 09:03 |
|---|---|
| Airport | İstanbul Airport (LTFM) |
Arrival
| Time | 2026-04-15 11:57 |
|---|---|
| Airport | Prince Mohammad Bin Abdulaziz Airport (OEMA) |
| Time | Latitude | Longitude | Altitude | Speed | Heading |
|---|---|---|---|---|---|
| 2026-04-15 08:52 | 41.26319 | 28.73599 | 318 ft | 0 kts | 71° |
| 2026-04-15 08:57 | 41.26313 | 28.73568 | 318 ft | 4 kts | 81° |
| 2026-04-15 08:57 | 41.26311 | 28.73533 | 318 ft | 4 kts | 97° |
| 2026-04-15 08:57 | 41.26317 | 28.73499 | 318 ft | 4 kts | 117° |
| 2026-04-15 08:58 | 41.26333 | 28.73472 | 318 ft | 4 kts | 152° |
| 2026-04-15 08:58 | 41.26340 | 28.73468 | 318 ft | 0 kts | 161° |
| 2026-04-15 08:59 | 41.26340 | 28.73467 | 318 ft | 0 kts | 161° |
| 2026-04-15 08:59 | 41.26340 | 28.73468 | 318 ft | 0 kts | 161° |
| 2026-04-15 09:01 | 41.26296 | 28.73487 | 318 ft | 17 kts | 161° |
| 2026-04-15 09:01 | 41.26216 | 28.73413 | 318 ft | 17 kts | 262° |
| 2026-04-15 09:01 | 41.26213 | 28.73259 | 318 ft | 17 kts | 269° |
| 2026-04-15 09:01 | 41.26209 | 28.73106 | 317 ft | 17 kts | 268° |
| 2026-04-15 09:02 | 41.26207 | 28.72954 | 317 ft | 17 kts | 270° |
| 2026-04-15 09:02 | 41.26211 | 28.72811 | 319 ft | 11 kts | 292° |
| 2026-04-15 09:02 | 41.26282 | 28.72776 | 319 ft | 19 kts | 358° |
| 2026-04-15 09:02 | 41.26744 | 28.72767 | 316 ft | 121 kts | 359° |
| 2026-04-15 09:03 | 41.27837 | 28.72702 | 414 ft | 193 kts | 355° |
| 2026-04-15 09:03 | 41.29209 | 28.72556 | 1288 ft | 199 kts | 2° |
| 2026-04-15 09:03 | 41.30601 | 28.72734 | 2328 ft | 207 kts | 11° |
| 2026-04-15 09:03 | 41.32123 | 28.73026 | 2868 ft | 230 kts | 8° |
| 2026-04-15 09:04 | 41.33734 | 28.73170 | 3721 ft | 238 kts | 5° |
| 2026-04-15 09:04 | 41.35378 | 28.73294 | 4706 ft | 234 kts | 1° |
| 2026-04-15 09:04 | 41.36920 | 28.72770 | 5439 ft | 238 kts | 324° |
| 2026-04-15 09:04 | 41.37894 | 28.71073 | 6283 ft | 238 kts | 289° |
| 2026-04-15 09:05 | 41.38065 | 28.68877 | 7001 ft | 245 kts | 257° |
| 2026-04-15 09:05 | 41.37216 | 28.66938 | 7752 ft | 248 kts | 219° |
| 2026-04-15 09:05 | 41.35754 | 28.65667 | 8179 ft | 265 kts | 217° |
| 2026-04-15 09:05 | 41.34617 | 28.63759 | 8653 ft | 276 kts | 253° |
| 2026-04-15 09:06 | 41.34526 | 28.61227 | 9519 ft | 277 kts | 282° |
| 2026-04-15 09:06 | 41.35077 | 28.58747 | 10297 ft | 283 kts | 289° |
| 2026-04-15 09:06 | 41.35569 | 28.56142 | 10639 ft | 302 kts | 273° |
| 2026-04-15 09:06 | 41.35103 | 28.53291 | 10891 ft | 335 kts | 243° |
| 2026-04-15 09:07 | 41.33505 | 28.50865 | 11233 ft | 366 kts | 215° |
| 2026-04-15 09:07 | 41.31092 | 28.49638 | 12066 ft | 382 kts | 189° |
| 2026-04-15 09:07 | 41.28424 | 28.49874 | 13079 ft | 388 kts | 168° |
| 2026-04-15 09:07 | 41.25841 | 28.51008 | 13750 ft | 398 kts | 155° |
| 2026-04-15 09:08 | 41.23659 | 28.53245 | 14608 ft | 409 kts | 130° |
| 2026-04-15 09:08 | 41.22291 | 28.56555 | 15666 ft | 413 kts | 107° |
| 2026-04-15 09:08 | 41.21746 | 28.60311 | 16425 ft | 414 kts | 99° |
| 2026-04-15 09:08 | 41.20869 | 28.63998 | 16756 ft | 428 kts | 120° |
| 2026-04-15 09:09 | 41.18888 | 28.66952 | 17623 ft | 430 kts | 145° |
| 2026-04-15 09:09 | 41.16288 | 28.68836 | 18501 ft | 424 kts | 157° |
| 2026-04-15 09:09 | 41.13648 | 28.70677 | 18870 ft | 437 kts | 149° |
| 2026-04-15 09:09 | 41.11162 | 28.73027 | 19366 ft | 441 kts | 142° |
| 2026-04-15 09:10 | 41.09175 | 28.76120 | 19894 ft | 453 kts | 119° |
| 2026-04-15 09:10 | 41.07955 | 28.79958 | 20612 ft | 450 kts | 111° |
| 2026-04-15 09:10 | 41.06601 | 28.83745 | 20950 ft | 462 kts | 121° |
| 2026-04-15 09:10 | 41.04828 | 28.87310 | 21487 ft | 461 kts | 131° |
| 2026-04-15 09:11 | 41.02409 | 28.90104 | 21983 ft | 465 kts | 154° |
| 2026-04-15 09:11 | 40.99402 | 28.91566 | 22780 ft | 459 kts | 172° |
| 2026-04-15 09:11 | 40.96243 | 28.92027 | 23615 ft | 454 kts | 184° |
| 2026-04-15 09:11 | 40.93092 | 28.91768 | 24308 ft | 454 kts | 192° |
| 2026-04-15 09:12 | 40.89948 | 28.91246 | 24975 ft | 458 kts | 192° |
| 2026-04-15 09:12 | 40.86793 | 28.90817 | 25613 ft | 463 kts | 188° |
| 2026-04-15 09:12 | 40.83532 | 28.90812 | 26190 ft | 473 kts | 182° |
| 2026-04-15 09:12 | 40.80226 | 28.91143 | 26826 ft | 478 kts | 180° |
| 2026-04-15 09:13 | 40.76900 | 28.91560 | 27465 ft | 480 kts | 180° |
| 2026-04-15 09:13 | 40.73556 | 28.91947 | 28081 ft | 482 kts | 180° |
| 2026-04-15 09:13 | 40.70214 | 28.92274 | 28740 ft | 481 kts | 181° |
| 2026-04-15 09:13 | 40.66866 | 28.92556 | 29302 ft | 483 kts | 182° |
| 2026-04-15 09:14 | 40.63491 | 28.92819 | 29756 ft | 486 kts | 182° |
| 2026-04-15 09:14 | 40.60100 | 28.93084 | 30151 ft | 489 kts | 182° |
| 2026-04-15 09:14 | 40.56704 | 28.93422 | 30492 ft | 488 kts | 178° |
| 2026-04-15 09:14 | 40.53377 | 28.94636 | 30607 ft | 510 kts | 159° |
| 2026-04-15 09:15 | 40.50383 | 28.97178 | 30952 ft | 513 kts | 148° |
| 2026-04-15 09:15 | 40.47496 | 28.99976 | 31206 ft | 517 kts | 149° |
| 2026-04-15 09:15 | 40.44537 | 29.02639 | 31760 ft | 513 kts | 152° |
| 2026-04-15 09:15 | 40.41589 | 29.05169 | 32330 ft | 510 kts | 153° |
| 2026-04-15 09:16 | 40.38612 | 29.07673 | 32860 ft | 508 kts | 153° |
| 2026-04-15 09:16 | 40.35636 | 29.10167 | 33325 ft | 507 kts | 153° |
| 2026-04-15 09:16 | 40.32677 | 29.12658 | 33808 ft | 505 kts | 153° |
| 2026-04-15 09:16 | 40.29723 | 29.15155 | 34274 ft | 504 kts | 153° |
| 2026-04-15 09:17 | 40.26778 | 29.17651 | 34715 ft | 503 kts | 153° |
| 2026-04-15 09:17 | 40.23838 | 29.20143 | 35111 ft | 503 kts | 153° |
| 2026-04-15 09:17 | 40.20906 | 29.22625 | 35531 ft | 501 kts | 153° |
| 2026-04-15 09:17 | 40.17941 | 29.25049 | 35918 ft | 495 kts | 158° |
| 2026-04-15 09:18 | 40.14827 | 29.26848 | 36121 ft | 488 kts | 167° |
| 2026-04-15 09:18 | 40.11592 | 29.28191 | 36429 ft | 486 kts | 169° |
| 2026-04-15 09:18 | 40.08355 | 29.29531 | 36789 ft | 486 kts | 168° |
| 2026-04-15 09:18 | 40.05149 | 29.30951 | 36970 ft | 489 kts | 167° |
| 2026-04-15 09:19 | 39.98812 | 29.33944 | 36952 ft | 481 kts | 166° |
| 2026-04-15 09:19 | 39.92598 | 29.36909 | 36960 ft | 474 kts | 167° |
| 2026-04-15 09:20 | 39.86409 | 29.40012 | 36961 ft | 479 kts | 163° |
| 2026-04-15 09:20 | 39.80273 | 29.43473 | 36958 ft | 482 kts | 163° |
| 2026-04-15 09:21 | 39.74100 | 29.46924 | 36955 ft | 482 kts | 163° |
| 2026-04-15 09:21 | 39.67948 | 29.50296 | 36946 ft | 482 kts | 164° |
| 2026-04-15 09:22 | 39.61742 | 29.53650 | 36951 ft | 481 kts | 165° |
| 2026-04-15 09:22 | 39.55516 | 29.56768 | 36959 ft | 480 kts | 166° |
| 2026-04-15 09:23 | 39.50325 | 29.59321 | 36956 ft | 479 kts | 166° |
| 2026-04-15 09:23 | 39.44101 | 29.62396 | 36970 ft | 478 kts | 166° |
| 2026-04-15 09:24 | 39.36874 | 29.65990 | 36964 ft | 478 kts | 166° |
| 2026-04-15 09:24 | 39.31707 | 29.68566 | 36962 ft | 478 kts | 166° |
| 2026-04-15 09:25 | 39.25476 | 29.71663 | 36959 ft | 478 kts | 166° |
| 2026-04-15 09:25 | 39.19272 | 29.74733 | 36968 ft | 477 kts | 166° |
| 2026-04-15 09:26 | 39.13066 | 29.77801 | 36963 ft | 477 kts | 166° |
| 2026-04-15 09:26 | 39.06903 | 29.80843 | 36975 ft | 477 kts | 166° |
| 2026-04-15 09:27 | 39.00701 | 29.83899 | 36968 ft | 476 kts | 166° |
| 2026-04-15 09:27 | 38.94489 | 29.86953 | 37018 ft | 479 kts | 166° |
| 2026-04-15 09:28 | 38.91371 | 29.88485 | 37387 ft | 477 kts | 166° |
| 2026-04-15 09:28 | 38.88274 | 29.90004 | 37751 ft | 475 kts | 166° |
| 2026-04-15 09:28 | 38.85173 | 29.91496 | 38082 ft | 473 kts | 166° |
| 2026-04-15 09:28 | 38.82083 | 29.92963 | 38381 ft | 473 kts | 166° |
| 2026-04-15 09:29 | 38.79026 | 29.94409 | 38642 ft | 473 kts | 167° |
| 2026-04-15 09:29 | 38.75944 | 29.95866 | 38969 ft | 472 kts | 167° |
| 2026-04-15 09:29 | 38.72855 | 29.97327 | 39148 ft | 473 kts | 166° |
| 2026-04-15 09:29 | 38.69753 | 29.98792 | 39177 ft | 476 kts | 166° |
| 2026-04-15 09:30 | 38.63546 | 30.01729 | 39202 ft | 475 kts | 167° |
| 2026-04-15 09:30 | 38.57331 | 30.04668 | 39217 ft | 475 kts | 166° |
| 2026-04-15 09:31 | 38.51119 | 30.07600 | 39202 ft | 475 kts | 166° |
| 2026-04-15 09:31 | 38.44947 | 30.10508 | 39199 ft | 475 kts | 166° |
| 2026-04-15 09:32 | 38.38713 | 30.13440 | 39206 ft | 475 kts | 166° |
| 2026-04-15 09:32 | 38.32558 | 30.16323 | 39204 ft | 474 kts | 167° |
| 2026-04-15 09:33 | 38.26347 | 30.19146 | 39203 ft | 473 kts | 167° |
| 2026-04-15 09:33 | 38.20141 | 30.21976 | 39200 ft | 474 kts | 167° |
| 2026-04-15 09:34 | 38.13930 | 30.24840 | 39207 ft | 474 kts | 167° |
| 2026-04-15 09:34 | 38.07724 | 30.27694 | 39211 ft | 474 kts | 167° |
| 2026-04-15 09:35 | 38.01526 | 30.30535 | 39219 ft | 473 kts | 167° |
| 2026-04-15 09:35 | 37.95356 | 30.33333 | 39201 ft | 473 kts | 167° |
| 2026-04-15 09:36 | 37.89146 | 30.36136 | 39217 ft | 473 kts | 167° |
| 2026-04-15 09:36 | 37.82944 | 30.38937 | 39215 ft | 473 kts | 167° |
| 2026-04-15 09:37 | 37.76727 | 30.41737 | 39217 ft | 473 kts | 167° |
| 2026-04-15 09:37 | 37.70522 | 30.44528 | 39212 ft | 473 kts | 167° |
| 2026-04-15 09:38 | 37.64364 | 30.47294 | 39209 ft | 472 kts | 167° |
| 2026-04-15 09:38 | 37.58171 | 30.50071 | 39192 ft | 471 kts | 167° |
| 2026-04-15 09:39 | 37.51997 | 30.52836 | 39207 ft | 470 kts | 167° |
| 2026-04-15 09:39 | 37.45834 | 30.55593 | 39181 ft | 470 kts | 167° |
| 2026-04-15 09:40 | 37.39679 | 30.58334 | 39174 ft | 470 kts | 167° |
| 2026-04-15 09:40 | 37.33499 | 30.61083 | 39169 ft | 471 kts | 167° |
| 2026-04-15 09:41 | 37.27311 | 30.63839 | 39174 ft | 471 kts | 167° |
| 2026-04-15 09:41 | 37.21112 | 30.66588 | 39157 ft | 472 kts | 167° |
| 2026-04-15 09:42 | 37.14914 | 30.69333 | 39152 ft | 472 kts | 167° |
| 2026-04-15 09:42 | 37.08800 | 30.72037 | 39134 ft | 471 kts | 167° |
| 2026-04-15 09:43 | 37.02623 | 30.74764 | 39138 ft | 470 kts | 167° |
| 2026-04-15 09:43 | 36.96467 | 30.77479 | 39129 ft | 469 kts | 168° |
| 2026-04-15 09:44 | 36.90334 | 30.79335 | 39128 ft | 456 kts | 179° |
| 2026-04-15 09:44 | 36.84057 | 30.79729 | 39139 ft | 449 kts | 186° |
| 2026-04-15 09:45 | 36.77919 | 30.79901 | 39127 ft | 450 kts | 185° |
| 2026-04-15 09:45 | 36.71662 | 30.80124 | 39128 ft | 450 kts | 185° |
| 2026-04-15 09:46 | 36.65488 | 30.80349 | 39130 ft | 450 kts | 185° |
| 2026-04-15 09:46 | 36.59217 | 30.80575 | 39129 ft | 450 kts | 185° |
| 2026-04-15 09:47 | 36.52941 | 30.80796 | 39135 ft | 450 kts | 185° |
| 2026-04-15 09:47 | 36.46673 | 30.81020 | 39127 ft | 450 kts | 185° |
| 2026-04-15 09:48 | 36.40493 | 30.81239 | 39129 ft | 449 kts | 185° |
| 2026-04-15 09:48 | 36.34241 | 30.81440 | 39142 ft | 449 kts | 185° |
| 2026-04-15 09:49 | 36.27996 | 30.81638 | 39142 ft | 449 kts | 185° |
| 2026-04-15 09:49 | 36.21790 | 30.81842 | 39119 ft | 449 kts | 185° |
| 2026-04-15 09:50 | 36.15595 | 30.82036 | 39120 ft | 448 kts | 185° |
| 2026-04-15 09:50 | 36.09359 | 30.82225 | 39120 ft | 448 kts | 185° |
| 2026-04-15 09:51 | 36.03177 | 30.82438 | 39115 ft | 448 kts | 184° |
| 2026-04-15 09:51 | 35.96930 | 30.82798 | 39124 ft | 448 kts | 183° |
| 2026-04-15 09:52 | 35.90721 | 30.83205 | 39107 ft | 447 kts | 184° |
| 2026-04-15 09:52 | 35.84500 | 30.83603 | 39110 ft | 447 kts | 184° |
| 2026-04-15 09:53 | 35.78350 | 30.83986 | 39111 ft | 446 kts | 184° |
| 2026-04-15 09:53 | 35.72232 | 30.84357 | 39111 ft | 446 kts | 184° |
| 2026-04-15 09:54 | 35.66025 | 30.84736 | 39107 ft | 446 kts | 184° |
| 2026-04-15 09:54 | 35.59834 | 30.85099 | 39099 ft | 443 kts | 184° |
| 2026-04-15 09:55 | 35.53710 | 30.85311 | 39106 ft | 442 kts | 185° |
| 2026-04-15 09:55 | 35.47562 | 30.85481 | 39098 ft | 440 kts | 185° |
| 2026-04-15 09:56 | 35.41414 | 30.85696 | 39103 ft | 442 kts | 185° |
| 2026-04-15 09:57 | 35.32165 | 30.86005 | 39112 ft | 447 kts | 185° |
| 2026-04-15 09:57 | 35.25903 | 30.86219 | 39088 ft | 449 kts | 185° |
| 2026-04-15 09:58 | 35.19684 | 30.86436 | 39081 ft | 449 kts | 185° |
| 2026-04-15 09:58 | 35.13422 | 30.86650 | 39083 ft | 448 kts | 185° |
| 2026-04-15 09:59 | 35.07191 | 30.86849 | 39080 ft | 446 kts | 185° |
| 2026-04-15 09:59 | 35.00987 | 30.87045 | 39069 ft | 445 kts | 185° |
| 2026-04-15 10:00 | 34.94800 | 30.87241 | 39074 ft | 444 kts | 185° |
| 2026-04-15 10:00 | 34.88631 | 30.87440 | 39076 ft | 443 kts | 185° |
| 2026-04-15 10:01 | 34.82473 | 30.87637 | 39069 ft | 442 kts | 185° |
| 2026-04-15 10:01 | 34.76326 | 30.87833 | 39065 ft | 442 kts | 185° |
| 2026-04-15 10:02 | 34.70408 | 30.88022 | 39065 ft | 442 kts | 185° |
| 2026-04-15 10:02 | 34.64124 | 30.88221 | 39052 ft | 442 kts | 185° |
| 2026-04-15 10:03 | 34.57983 | 30.88456 | 39046 ft | 443 kts | 184° |
| 2026-04-15 10:03 | 34.51809 | 30.88786 | 39040 ft | 443 kts | 184° |
| 2026-04-15 10:04 | 34.46686 | 30.89062 | 39037 ft | 443 kts | 184° |
| 2026-04-15 10:04 | 34.39509 | 30.89431 | 39036 ft | 443 kts | 184° |
| 2026-04-15 10:05 | 34.34383 | 30.89689 | 39039 ft | 443 kts | 184° |
| 2026-04-15 10:05 | 34.28216 | 30.90003 | 39035 ft | 443 kts | 184° |
| 2026-04-15 10:06 | 34.22051 | 30.90318 | 39038 ft | 443 kts | 184° |
| 2026-04-15 10:06 | 34.15891 | 30.90660 | 39036 ft | 443 kts | 184° |
| 2026-04-15 10:07 | 34.09724 | 30.91004 | 39029 ft | 443 kts | 184° |
| 2026-04-15 10:07 | 34.03559 | 30.91345 | 39027 ft | 443 kts | 184° |
| 2026-04-15 10:08 | 33.97389 | 30.91686 | 39026 ft | 443 kts | 184° |
| 2026-04-15 10:08 | 33.91265 | 30.91985 | 39033 ft | 442 kts | 184° |
| 2026-04-15 10:09 | 33.85103 | 30.92206 | 39028 ft | 442 kts | 185° |
| 2026-04-15 10:09 | 33.78943 | 30.92425 | 39030 ft | 443 kts | 184° |
| 2026-04-15 10:10 | 33.72760 | 30.92651 | 39027 ft | 444 kts | 184° |
| 2026-04-15 10:10 | 33.66599 | 30.92880 | 39028 ft | 445 kts | 184° |
| 2026-04-15 10:11 | 33.60402 | 30.93116 | 39028 ft | 446 kts | 184° |
| 2026-04-15 10:11 | 33.54191 | 30.93351 | 39032 ft | 446 kts | 184° |
| 2026-04-15 10:12 | 33.47977 | 30.93582 | 39013 ft | 447 kts | 184° |
| 2026-04-15 10:12 | 33.41752 | 30.93815 | 39013 ft | 447 kts | 184° |
| 2026-04-15 10:13 | 33.35537 | 30.94048 | 39013 ft | 447 kts | 184° |
| 2026-04-15 10:13 | 33.29340 | 30.94280 | 39026 ft | 447 kts | 185° |
| 2026-04-15 10:14 | 33.23121 | 30.94510 | 39019 ft | 447 kts | 185° |
| 2026-04-15 10:14 | 33.16948 | 30.94739 | 39012 ft | 447 kts | 185° |
| 2026-04-15 10:15 | 33.10717 | 30.94976 | 39026 ft | 447 kts | 184° |
| 2026-04-15 10:15 | 33.04471 | 30.95585 | 39020 ft | 451 kts | 181° |
| 2026-04-15 10:16 | 32.98227 | 30.96303 | 39028 ft | 451 kts | 181° |
| 2026-04-15 10:16 | 32.91971 | 30.97011 | 39001 ft | 451 kts | 181° |
| 2026-04-15 10:17 | 32.85737 | 30.97706 | 39004 ft | 452 kts | 181° |
| 2026-04-15 10:17 | 32.79470 | 30.98408 | 39014 ft | 452 kts | 181° |
| 2026-04-15 10:18 | 32.73177 | 30.99109 | 39017 ft | 453 kts | 181° |
| 2026-04-15 10:18 | 32.66922 | 30.99801 | 39013 ft | 454 kts | 181° |
| 2026-04-15 10:19 | 32.60613 | 31.00499 | 39012 ft | 454 kts | 181° |
| 2026-04-15 10:19 | 32.54299 | 31.01199 | 39011 ft | 455 kts | 181° |
| 2026-04-15 10:20 | 32.48029 | 31.01890 | 39004 ft | 455 kts | 181° |
| 2026-04-15 10:20 | 32.41711 | 31.02590 | 39006 ft | 456 kts | 181° |
| 2026-04-15 10:21 | 32.35391 | 31.03288 | 39010 ft | 456 kts | 181° |
| 2026-04-15 10:21 | 32.29046 | 31.03987 | 38997 ft | 456 kts | 181° |
| 2026-04-15 10:22 | 32.22747 | 31.04678 | 39008 ft | 456 kts | 181° |
| 2026-04-15 10:22 | 32.16424 | 31.05372 | 39000 ft | 456 kts | 181° |
| 2026-04-15 10:23 | 32.10087 | 31.06067 | 38998 ft | 456 kts | 181° |
| 2026-04-15 10:23 | 32.03796 | 31.06757 | 39005 ft | 456 kts | 181° |
| 2026-04-15 10:24 | 31.97471 | 31.07449 | 38998 ft | 456 kts | 181° |
| 2026-04-15 10:24 | 31.91125 | 31.08140 | 39005 ft | 458 kts | 181° |
| 2026-04-15 10:25 | 31.84802 | 31.08831 | 38997 ft | 459 kts | 181° |
| 2026-04-15 10:25 | 31.78419 | 31.09525 | 39003 ft | 461 kts | 181° |
| 2026-04-15 10:26 | 31.72019 | 31.10222 | 39001 ft | 463 kts | 181° |
| 2026-04-15 10:26 | 31.65598 | 31.10921 | 38998 ft | 463 kts | 181° |
| 2026-04-15 10:27 | 31.59165 | 31.11622 | 39004 ft | 464 kts | 181° |
| 2026-04-15 10:27 | 31.52737 | 31.12329 | 38999 ft | 464 kts | 180° |
| 2026-04-15 10:28 | 31.46353 | 31.13473 | 38969 ft | 467 kts | 178° |
| 2026-04-15 10:28 | 31.39937 | 31.14685 | 38960 ft | 466 kts | 178° |
| 2026-04-15 10:29 | 31.33530 | 31.15870 | 38954 ft | 466 kts | 178° |
| 2026-04-15 10:29 | 31.27151 | 31.17039 | 38953 ft | 465 kts | 178° |
| 2026-04-15 10:30 | 31.20755 | 31.18219 | 38945 ft | 465 kts | 178° |
| 2026-04-15 10:30 | 31.14353 | 31.19416 | 38947 ft | 466 kts | 178° |
| 2026-04-15 10:31 | 31.07954 | 31.20616 | 38941 ft | 466 kts | 178° |
| 2026-04-15 10:31 | 31.01540 | 31.21814 | 38942 ft | 466 kts | 178° |
| 2026-04-15 10:32 | 30.95131 | 31.23009 | 38944 ft | 466 kts | 178° |
| 2026-04-15 10:32 | 30.88818 | 31.24182 | 38944 ft | 467 kts | 178° |
| 2026-04-15 10:33 | 30.82530 | 31.25350 | 38943 ft | 468 kts | 178° |
| 2026-04-15 10:33 | 30.76216 | 31.26522 | 38944 ft | 468 kts | 178° |
| 2026-04-15 10:34 | 30.69831 | 31.27706 | 38944 ft | 469 kts | 178° |
| 2026-04-15 10:34 | 30.63375 | 31.28902 | 38947 ft | 470 kts | 178° |
| 2026-04-15 10:35 | 30.56971 | 31.30086 | 38946 ft | 470 kts | 178° |
| 2026-04-15 10:35 | 30.50497 | 31.31281 | 38942 ft | 471 kts | 178° |
| 2026-04-15 10:36 | 30.44083 | 31.32461 | 38946 ft | 471 kts | 178° |
| 2026-04-15 10:36 | 30.37698 | 31.33623 | 38941 ft | 472 kts | 178° |
| 2026-04-15 10:37 | 30.31270 | 31.34792 | 38945 ft | 471 kts | 178° |
| 2026-04-15 10:37 | 30.24826 | 31.35964 | 38945 ft | 471 kts | 178° |
| 2026-04-15 10:38 | 30.18393 | 31.37134 | 38945 ft | 471 kts | 178° |
| 2026-04-15 10:38 | 30.11913 | 31.38453 | 38932 ft | 478 kts | 171° |
| 2026-04-15 10:39 | 30.05796 | 31.41580 | 38952 ft | 494 kts | 154° |
| 2026-04-15 10:39 | 30.00211 | 31.46345 | 38950 ft | 500 kts | 149° |
| 2026-04-15 10:40 | 29.94694 | 31.51163 | 38939 ft | 501 kts | 149° |
| 2026-04-15 10:40 | 29.89153 | 31.55919 | 38951 ft | 502 kts | 149° |
| 2026-04-15 10:41 | 29.83520 | 31.60719 | 38954 ft | 503 kts | 149° |
| 2026-04-15 10:41 | 29.77895 | 31.65501 | 38954 ft | 503 kts | 150° |
| 2026-04-15 10:42 | 29.72360 | 31.70198 | 38954 ft | 503 kts | 150° |
| 2026-04-15 10:42 | 29.66719 | 31.74976 | 38954 ft | 503 kts | 149° |
| 2026-04-15 10:43 | 29.61088 | 31.79745 | 38948 ft | 503 kts | 150° |
| 2026-04-15 10:43 | 29.55519 | 31.84457 | 38943 ft | 503 kts | 150° |
| 2026-04-15 10:44 | 29.49904 | 31.89198 | 38958 ft | 502 kts | 150° |
| 2026-04-15 10:44 | 29.44390 | 31.93847 | 38963 ft | 501 kts | 150° |
| 2026-04-15 10:45 | 29.38843 | 31.98516 | 38960 ft | 501 kts | 150° |
| 2026-04-15 10:45 | 29.33321 | 32.03157 | 38969 ft | 502 kts | 150° |
| 2026-04-15 10:46 | 29.27764 | 32.07823 | 38965 ft | 503 kts | 150° |
| 2026-04-15 10:46 | 29.22114 | 32.12563 | 38963 ft | 504 kts | 150° |
| 2026-04-15 10:47 | 29.17403 | 32.16506 | 38966 ft | 505 kts | 150° |
| 2026-04-15 10:47 | 29.11768 | 32.21216 | 38957 ft | 506 kts | 150° |
| 2026-04-15 10:48 | 29.06138 | 32.25921 | 38958 ft | 507 kts | 150° |
| 2026-04-15 10:48 | 29.00543 | 32.30589 | 38955 ft | 508 kts | 150° |
| 2026-04-15 10:49 | 28.94938 | 32.35258 | 38954 ft | 508 kts | 151° |
| 2026-04-15 10:49 | 28.89203 | 32.40028 | 38961 ft | 509 kts | 151° |
| 2026-04-15 10:50 | 28.83523 | 32.44745 | 38945 ft | 510 kts | 151° |
| 2026-04-15 10:50 | 28.77878 | 32.49427 | 38943 ft | 511 kts | 151° |
| 2026-04-15 10:51 | 28.72218 | 32.54115 | 38945 ft | 511 kts | 151° |
| 2026-04-15 10:51 | 28.66483 | 32.58858 | 38945 ft | 512 kts | 151° |
| 2026-04-15 10:52 | 28.60702 | 32.63636 | 38943 ft | 512 kts | 151° |
| 2026-04-15 10:52 | 28.54932 | 32.68398 | 38945 ft | 512 kts | 151° |
| 2026-04-15 10:53 | 28.49162 | 32.73153 | 38937 ft | 512 kts | 151° |
| 2026-04-15 10:53 | 28.43421 | 32.77871 | 38933 ft | 512 kts | 152° |
| 2026-04-15 10:54 | 28.37653 | 32.82609 | 38933 ft | 512 kts | 151° |
| 2026-04-15 10:54 | 28.31868 | 32.87359 | 38936 ft | 512 kts | 152° |
| 2026-04-15 10:55 | 28.26085 | 32.92093 | 38917 ft | 512 kts | 151° |
| 2026-04-15 10:55 | 28.20303 | 32.96824 | 38910 ft | 512 kts | 151° |
| 2026-04-15 10:56 | 28.14523 | 33.01549 | 38932 ft | 512 kts | 152° |
| 2026-04-15 10:56 | 28.08778 | 33.06238 | 38915 ft | 512 kts | 152° |
| 2026-04-15 10:57 | 28.02996 | 33.10950 | 38915 ft | 512 kts | 152° |
| 2026-04-15 10:57 | 27.94304 | 33.18016 | 38916 ft | 514 kts | 152° |
| 2026-04-15 10:58 | 27.88507 | 33.22725 | 38924 ft | 516 kts | 152° |
| 2026-04-15 10:58 | 27.82729 | 33.27407 | 38911 ft | 519 kts | 152° |
| 2026-04-15 10:59 | 27.76882 | 33.32144 | 38911 ft | 521 kts | 152° |
| 2026-04-15 10:59 | 27.71003 | 33.36903 | 38937 ft | 521 kts | 152° |
| 2026-04-15 11:00 | 27.65106 | 33.41670 | 38916 ft | 521 kts | 152° |
| 2026-04-15 11:00 | 27.59295 | 33.46359 | 38911 ft | 520 kts | 152° |
| 2026-04-15 11:01 | 27.53405 | 33.51106 | 38916 ft | 520 kts | 152° |
| 2026-04-15 11:01 | 27.47541 | 33.55819 | 38918 ft | 519 kts | 152° |
| 2026-04-15 11:02 | 27.41665 | 33.60525 | 38911 ft | 517 kts | 152° |
| 2026-04-15 11:02 | 27.35908 | 33.65136 | 38917 ft | 517 kts | 152° |
| 2026-04-15 11:03 | 27.30131 | 33.69757 | 38916 ft | 517 kts | 152° |
| 2026-04-15 11:03 | 27.24246 | 33.74457 | 38915 ft | 518 kts | 152° |
| 2026-04-15 11:04 | 27.18753 | 33.79800 | 38911 ft | 534 kts | 135° |
| 2026-04-15 11:04 | 27.14935 | 33.86970 | 38909 ft | 547 kts | 114° |
| 2026-04-15 11:05 | 27.12251 | 33.94983 | 38913 ft | 549 kts | 114° |
| 2026-04-15 11:05 | 27.09491 | 34.02947 | 38918 ft | 550 kts | 115° |
| 2026-04-15 11:06 | 27.06633 | 34.10928 | 38912 ft | 550 kts | 115° |
| 2026-04-15 11:06 | 27.03772 | 34.18892 | 38914 ft | 549 kts | 115° |
| 2026-04-15 11:07 | 27.00965 | 34.26716 | 38915 ft | 548 kts | 115° |
| 2026-04-15 11:07 | 26.98113 | 34.34657 | 38913 ft | 548 kts | 114° |
| 2026-04-15 11:08 | 26.95330 | 34.42399 | 38916 ft | 548 kts | 115° |
| 2026-04-15 11:08 | 26.92537 | 34.50154 | 38919 ft | 547 kts | 115° |
| 2026-04-15 11:09 | 26.89711 | 34.57990 | 38914 ft | 547 kts | 115° |
| 2026-04-15 11:09 | 26.86894 | 34.65778 | 38916 ft | 546 kts | 115° |
| 2026-04-15 11:10 | 26.84030 | 34.73671 | 38929 ft | 546 kts | 115° |
| 2026-04-15 11:10 | 26.81198 | 34.81468 | 38911 ft | 546 kts | 115° |
| 2026-04-15 11:11 | 26.78398 | 34.89168 | 38916 ft | 546 kts | 115° |
| 2026-04-15 11:11 | 26.75527 | 34.97044 | 38911 ft | 546 kts | 115° |
| 2026-04-15 11:12 | 26.72652 | 35.04913 | 38915 ft | 546 kts | 115° |
| 2026-04-15 11:12 | 26.69799 | 35.12705 | 38915 ft | 546 kts | 115° |
| 2026-04-15 11:13 | 26.66919 | 35.20556 | 38908 ft | 545 kts | 115° |
| 2026-04-15 11:13 | 26.64039 | 35.28395 | 38907 ft | 546 kts | 115° |
| 2026-04-15 11:14 | 26.61171 | 35.36187 | 38910 ft | 545 kts | 115° |
| 2026-04-15 11:14 | 26.58276 | 35.44035 | 38908 ft | 546 kts | 115° |
| 2026-04-15 11:15 | 26.55398 | 35.51775 | 38898 ft | 545 kts | 115° |
| 2026-04-15 11:15 | 26.52415 | 35.59575 | 38901 ft | 545 kts | 115° |
| 2026-04-15 11:16 | 26.49413 | 35.67363 | 38893 ft | 545 kts | 115° |
| 2026-04-15 11:16 | 26.46456 | 35.75063 | 38886 ft | 545 kts | 115° |
| 2026-04-15 11:17 | 26.43515 | 35.82715 | 38884 ft | 545 kts | 115° |
| 2026-04-15 11:17 | 26.40514 | 35.90515 | 38881 ft | 546 kts | 115° |
| 2026-04-15 11:18 | 26.37561 | 35.98174 | 38879 ft | 546 kts | 115° |
| 2026-04-15 11:18 | 26.34573 | 36.05907 | 38875 ft | 546 kts | 115° |
| 2026-04-15 11:19 | 26.31560 | 36.13694 | 38870 ft | 547 kts | 115° |
| 2026-04-15 11:19 | 26.28573 | 36.21385 | 38860 ft | 547 kts | 115° |
| 2026-04-15 11:20 | 26.25550 | 36.29169 | 38862 ft | 547 kts | 115° |
| 2026-04-15 11:20 | 26.22526 | 36.36942 | 38860 ft | 547 kts | 115° |
| 2026-04-15 11:21 | 26.19489 | 36.44731 | 38861 ft | 546 kts | 115° |
| 2026-04-15 11:21 | 26.16314 | 36.52346 | 38856 ft | 544 kts | 121° |
| 2026-04-15 11:22 | 26.12639 | 36.59727 | 38861 ft | 543 kts | 122° |
| 2026-04-15 11:22 | 26.08929 | 36.67069 | 38861 ft | 543 kts | 122° |
| 2026-04-15 11:23 | 26.05301 | 36.74368 | 38860 ft | 543 kts | 121° |
| 2026-04-15 11:23 | 26.01691 | 36.81693 | 38863 ft | 543 kts | 121° |
| 2026-04-15 11:24 | 25.98051 | 36.89073 | 38867 ft | 543 kts | 121° |
| 2026-04-15 11:24 | 25.94386 | 36.96476 | 38875 ft | 546 kts | 121° |
| 2026-04-15 11:25 | 25.90760 | 37.03779 | 38887 ft | 550 kts | 121° |
| 2026-04-15 11:25 | 25.87067 | 37.11203 | 38847 ft | 544 kts | 121° |
| 2026-04-15 11:26 | 25.83465 | 37.18456 | 38725 ft | 527 kts | 121° |
| 2026-04-15 11:26 | 25.79976 | 37.25448 | 38599 ft | 512 kts | 121° |
| 2026-04-15 11:27 | 25.77145 | 37.31132 | 38472 ft | 500 kts | 121° |
| 2026-04-15 11:27 | 25.74920 | 37.35610 | 38291 ft | 492 kts | 121° |
| 2026-04-15 11:27 | 25.73827 | 37.37806 | 38175 ft | 489 kts | 121° |
| 2026-04-15 11:28 | 25.72184 | 37.41103 | 37918 ft | 486 kts | 121° |
| 2026-04-15 11:28 | 25.70552 | 37.44364 | 37738 ft | 482 kts | 121° |
| 2026-04-15 11:28 | 25.68930 | 37.47614 | 37512 ft | 479 kts | 121° |
| 2026-04-15 11:28 | 25.67321 | 37.50831 | 37309 ft | 475 kts | 121° |
| 2026-04-15 11:29 | 25.65724 | 37.54023 | 37115 ft | 472 kts | 121° |
| 2026-04-15 11:29 | 25.64139 | 37.57188 | 36897 ft | 468 kts | 121° |
| 2026-04-15 11:29 | 25.62561 | 37.60338 | 36719 ft | 464 kts | 121° |
| 2026-04-15 11:29 | 25.61035 | 37.63388 | 36505 ft | 461 kts | 121° |
| 2026-04-15 11:30 | 25.59483 | 37.66482 | 36272 ft | 459 kts | 121° |
| 2026-04-15 11:30 | 25.57926 | 37.69583 | 35934 ft | 459 kts | 121° |
| 2026-04-15 11:30 | 25.56367 | 37.72688 | 35526 ft | 461 kts | 121° |
| 2026-04-15 11:30 | 25.54802 | 37.75800 | 35155 ft | 463 kts | 120° |
| 2026-04-15 11:31 | 25.53231 | 37.78924 | 34886 ft | 461 kts | 120° |
| 2026-04-15 11:31 | 25.51672 | 37.82025 | 34605 ft | 460 kts | 120° |
| 2026-04-15 11:31 | 25.50115 | 37.85118 | 34334 ft | 458 kts | 120° |
| 2026-04-15 11:31 | 25.48586 | 37.88152 | 34013 ft | 457 kts | 120° |
| 2026-04-15 11:32 | 25.47037 | 37.91224 | 33696 ft | 457 kts | 120° |
| 2026-04-15 11:32 | 25.45523 | 37.94226 | 33386 ft | 456 kts | 120° |
| 2026-04-15 11:32 | 25.43977 | 37.97290 | 33062 ft | 456 kts | 120° |
| 2026-04-15 11:32 | 25.42431 | 38.00350 | 32719 ft | 456 kts | 120° |
| 2026-04-15 11:33 | 25.40885 | 38.03409 | 32402 ft | 455 kts | 120° |
| 2026-04-15 11:33 | 25.39346 | 38.06451 | 32086 ft | 454 kts | 120° |
| 2026-04-15 11:33 | 25.37800 | 38.09505 | 31709 ft | 454 kts | 121° |
| 2026-04-15 11:33 | 25.36256 | 38.12552 | 31356 ft | 454 kts | 121° |
| 2026-04-15 11:34 | 25.34714 | 38.15597 | 30980 ft | 454 kts | 121° |
| 2026-04-15 11:34 | 25.33175 | 38.18631 | 30644 ft | 452 kts | 121° |
| 2026-04-15 11:34 | 25.31632 | 38.21672 | 30278 ft | 452 kts | 121° |
| 2026-04-15 11:34 | 25.30093 | 38.24701 | 29902 ft | 453 kts | 121° |
| 2026-04-15 11:35 | 25.28538 | 38.27761 | 29357 ft | 462 kts | 121° |
| 2026-04-15 11:35 | 25.26925 | 38.30931 | 28763 ft | 483 kts | 121° |
| 2026-04-15 11:35 | 25.25224 | 38.34268 | 28098 ft | 512 kts | 120° |
| 2026-04-15 11:35 | 25.23486 | 38.37682 | 27386 ft | 517 kts | 120° |
| 2026-04-15 11:36 | 25.21719 | 38.41155 | 26651 ft | 512 kts | 120° |
| 2026-04-15 11:36 | 25.19978 | 38.44576 | 25937 ft | 506 kts | 120° |
| 2026-04-15 11:36 | 25.18296 | 38.47875 | 25247 ft | 499 kts | 120° |
| 2026-04-15 11:36 | 25.16621 | 38.51155 | 24552 ft | 486 kts | 120° |
| 2026-04-15 11:37 | 25.15016 | 38.54299 | 23851 ft | 453 kts | 120° |
| 2026-04-15 11:37 | 25.13478 | 38.57309 | 23248 ft | 449 kts | 120° |
| 2026-04-15 11:37 | 25.11947 | 38.60302 | 22636 ft | 446 kts | 120° |
| 2026-04-15 11:37 | 25.10424 | 38.63277 | 22006 ft | 444 kts | 120° |
| 2026-04-15 11:38 | 25.08906 | 38.66241 | 21368 ft | 441 kts | 120° |
| 2026-04-15 11:38 | 25.07404 | 38.69173 | 20739 ft | 438 kts | 120° |
| 2026-04-15 11:38 | 25.05907 | 38.72094 | 20103 ft | 434 kts | 120° |
| 2026-04-15 11:38 | 25.04428 | 38.74977 | 19490 ft | 431 kts | 120° |
| 2026-04-15 11:39 | 25.02959 | 38.77842 | 18866 ft | 428 kts | 120° |
| 2026-04-15 11:39 | 25.01496 | 38.80692 | 18235 ft | 425 kts | 120° |
| 2026-04-15 11:39 | 25.00064 | 38.83476 | 17611 ft | 421 kts | 120° |
| 2026-04-15 11:39 | 24.98630 | 38.86273 | 16991 ft | 417 kts | 120° |
| 2026-04-15 11:40 | 24.97207 | 38.89041 | 16373 ft | 413 kts | 120° |
| 2026-04-15 11:40 | 24.95816 | 38.91681 | 15813 ft | 394 kts | 124° |
| 2026-04-15 11:40 | 24.94213 | 38.94089 | 15518 ft | 389 kts | 130° |
| 2026-04-15 11:40 | 24.92456 | 38.96377 | 15183 ft | 393 kts | 132° |
| 2026-04-15 11:41 | 24.90658 | 38.98658 | 14841 ft | 395 kts | 132° |
| 2026-04-15 11:41 | 24.88879 | 39.00953 | 14499 ft | 391 kts | 131° |
| 2026-04-15 11:41 | 24.87143 | 39.03237 | 14158 ft | 385 kts | 131° |
| 2026-04-15 11:41 | 24.85465 | 39.05471 | 13670 ft | 380 kts | 130° |
| 2026-04-15 11:42 | 24.83810 | 39.07703 | 13292 ft | 372 kts | 130° |
| 2026-04-15 11:42 | 24.82197 | 39.09874 | 12973 ft | 363 kts | 131° |
| 2026-04-15 11:42 | 24.80630 | 39.11977 | 12656 ft | 355 kts | 131° |
| 2026-04-15 11:42 | 24.79083 | 39.14054 | 12344 ft | 347 kts | 131° |
| 2026-04-15 11:43 | 24.77571 | 39.16087 | 12035 ft | 338 kts | 130° |
| 2026-04-15 11:43 | 24.76387 | 39.18173 | 11739 ft | 325 kts | 111° |
| 2026-04-15 11:43 | 24.76056 | 39.20480 | 11687 ft | 315 kts | 92° |
| 2026-04-15 11:43 | 24.76219 | 39.22840 | 11533 ft | 298 kts | 86° |
| 2026-04-15 11:44 | 24.76434 | 39.25032 | 11183 ft | 281 kts | 86° |
| 2026-04-15 11:44 | 24.76641 | 39.27158 | 10994 ft | 279 kts | 86° |
| 2026-04-15 11:44 | 24.76847 | 39.29283 | 10793 ft | 279 kts | 86° |
| 2026-04-15 11:44 | 24.77050 | 39.31397 | 10585 ft | 277 kts | 86° |
| 2026-04-15 11:45 | 24.77249 | 39.33494 | 10385 ft | 273 kts | 87° |
| 2026-04-15 11:45 | 24.77437 | 39.35534 | 10201 ft | 270 kts | 86° |
| 2026-04-15 11:45 | 24.77627 | 39.37584 | 10016 ft | 267 kts | 86° |
| 2026-04-15 11:45 | 24.77812 | 39.39588 | 9875 ft | 264 kts | 86° |
| 2026-04-15 11:46 | 24.77998 | 39.41599 | 9835 ft | 266 kts | 86° |
| 2026-04-15 11:46 | 24.78185 | 39.43635 | 9814 ft | 269 kts | 86° |
| 2026-04-15 11:46 | 24.78372 | 39.45695 | 9802 ft | 270 kts | 86° |
| 2026-04-15 11:46 | 24.78558 | 39.47747 | 9802 ft | 269 kts | 86° |
| 2026-04-15 11:47 | 24.78745 | 39.49805 | 9784 ft | 266 kts | 86° |
| 2026-04-15 11:47 | 24.79166 | 39.51695 | 9775 ft | 254 kts | 63° |
| 2026-04-15 11:47 | 24.80338 | 39.53072 | 9800 ft | 255 kts | 33° |
| 2026-04-15 11:47 | 24.81974 | 39.53755 | 9802 ft | 258 kts | 12° |
| 2026-04-15 11:48 | 24.83769 | 39.53788 | 9757 ft | 259 kts | 352° |
| 2026-04-15 11:48 | 24.85545 | 39.53410 | 9517 ft | 259 kts | 350° |
| 2026-04-15 11:48 | 24.87316 | 39.53399 | 9049 ft | 254 kts | 20° |
| 2026-04-15 11:48 | 24.88733 | 39.54444 | 8675 ft | 243 kts | 55° |
| 2026-04-15 11:49 | 24.89507 | 39.56067 | 8295 ft | 238 kts | 75° |
| 2026-04-15 11:49 | 24.89915 | 39.57801 | 7972 ft | 236 kts | 80° |
| 2026-04-15 11:49 | 24.90253 | 39.59521 | 7850 ft | 226 kts | 81° |
| 2026-04-15 11:49 | 24.90383 | 39.61205 | 7753 ft | 218 kts | 103° |
| 2026-04-15 11:50 | 24.89688 | 39.62628 | 7763 ft | 213 kts | 138° |
| 2026-04-15 11:50 | 24.88379 | 39.63373 | 7819 ft | 223 kts | 160° |
| 2026-04-15 11:50 | 24.86877 | 39.63911 | 7539 ft | 225 kts | 162° |
| 2026-04-15 11:50 | 24.85388 | 39.64344 | 7249 ft | 226 kts | 165° |
| 2026-04-15 11:51 | 24.83840 | 39.64717 | 6979 ft | 230 kts | 167° |
| 2026-04-15 11:51 | 24.82256 | 39.65064 | 6684 ft | 233 kts | 167° |
| 2026-04-15 11:51 | 24.80680 | 39.65401 | 6382 ft | 227 kts | 167° |
| 2026-04-15 11:51 | 24.79151 | 39.65724 | 6048 ft | 215 kts | 166° |
| 2026-04-15 11:52 | 24.77758 | 39.66021 | 5843 ft | 193 kts | 167° |
| 2026-04-15 11:52 | 24.76506 | 39.66293 | 5619 ft | 179 kts | 166° |
| 2026-04-15 11:52 | 24.75293 | 39.66554 | 5386 ft | 180 kts | 167° |
| 2026-04-15 11:52 | 24.74067 | 39.66818 | 5166 ft | 180 kts | 167° |
| 2026-04-15 11:53 | 24.72839 | 39.67080 | 4925 ft | 179 kts | 167° |
| 2026-04-15 11:53 | 24.71619 | 39.67340 | 4682 ft | 178 kts | 167° |
| 2026-04-15 11:53 | 24.70407 | 39.67600 | 4453 ft | 178 kts | 166° |
| 2026-04-15 11:53 | 24.69178 | 39.67863 | 4221 ft | 181 kts | 166° |
| 2026-04-15 11:54 | 24.67957 | 39.68125 | 3981 ft | 180 kts | 166° |
| 2026-04-15 11:54 | 24.66733 | 39.68385 | 3887 ft | 178 kts | 166° |
| 2026-04-15 11:54 | 24.65517 | 39.68646 | 3736 ft | 182 kts | 166° |
| 2026-04-15 11:54 | 24.64302 | 39.68905 | 3465 ft | 174 kts | 166° |
| 2026-04-15 11:55 | 24.63134 | 39.69156 | 3250 ft | 165 kts | 166° |
| 2026-04-15 11:55 | 24.62031 | 39.69392 | 3030 ft | 161 kts | 166° |
| 2026-04-15 11:55 | 24.60929 | 39.69625 | 2838 ft | 161 kts | 166° |
| 2026-04-15 11:55 | 24.59834 | 39.69875 | 2610 ft | 161 kts | 165° |
| 2026-04-15 11:56 | 24.58732 | 39.70116 | 2459 ft | 164 kts | 166° |
| 2026-04-15 11:56 | 24.57609 | 39.70347 | 2229 ft | 161 kts | 167° |
| 2026-04-15 11:56 | 24.56605 | 39.70561 | 2127 ft | 134 kts | 166° |
| 2026-04-15 11:56 | 24.55819 | 39.70736 | 2105 ft | 90 kts | 169° |
| 2026-04-15 11:57 | 24.55398 | 39.70824 | 2097 ft | 24 kts | 169° |
| 2026-04-15 11:57 | 24.55282 | 39.70900 | 2095 ft | 7 kts | 141° |
| 2026-04-15 11:57 | 24.55243 | 39.70937 | 2095 ft | 7 kts | 132° |
| 2026-04-15 11:58 | 24.55221 | 39.70986 | 2096 ft | 7 kts | 105° |
| 2026-04-15 11:58 | 24.55219 | 39.71035 | 2096 ft | 6 kts | 80° |
| 2026-04-15 11:58 | 24.55227 | 39.71078 | 2097 ft | 6 kts | 78° |
| 2026-04-15 11:58 | 24.55234 | 39.71119 | 2097 ft | 6 kts | 79° |
| 2026-04-15 11:59 | 24.55242 | 39.71161 | 2097 ft | 6 kts | 79° |
| 2026-04-15 11:59 | 24.55247 | 39.71203 | 2098 ft | 6 kts | 82° |
| 2026-04-15 11:59 | 24.55239 | 39.71230 | 2098 ft | 4 kts | 108° |
| 2026-04-15 11:59 | 24.55240 | 39.71257 | 2098 ft | 4 kts | 84° |
| 2026-04-15 12:00 | 24.55243 | 39.71285 | 2098 ft | 4 kts | 83° |
| 2026-04-15 12:00 | 24.55247 | 39.71315 | 2098 ft | 4 kts | 78° |
| 2026-04-15 12:00 | 24.55251 | 39.71337 | 2098 ft | 0 kts | 78° |